sensor_id;sensor_type;location;lat;lon;timestamp;P1;durP1;ratioP1;P2;durP2;ratioP2
18893;SDS011;9579;49.488;8.226;2023-03-14T00:00:53;2.43;;;1.30;;
18893;SDS011;9579;49.488;8.226;2023-03-14T00:03:40;3.37;;;1.77;;
18893;SDS011;9579;49.488;8.226;2023-03-14T00:06:29;3.07;;;1.80;;
18893;SDS011;9579;49.488;8.226;2023-03-14T00:09:16;2.23;;;1.40;;
18893;SDS011;9579;49.488;8.226;2023-03-14T00:12:04;3.17;;;1.57;;
18893;SDS011;9579;49.488;8.226;2023-03-14T00:14:52;2.33;;;1.60;;
18893;SDS011;9579;49.488;8.226;2023-03-14T00:17:42;2.43;;;1.60;;
18893;SDS011;9579;49.488;8.226;2023-03-14T00:20:29;2.93;;;1.63;;
18893;SDS011;9579;49.488;8.226;2023-03-14T00:23:18;1.87;;;1.50;;
18893;SDS011;9579;49.488;8.226;2023-03-14T00:26:07;2.47;;;1.67;;
18893;SDS011;9579;49.488;8.226;2023-03-14T00:28:55;2.33;;;1.50;;
18893;SDS011;9579;49.488;8.226;2023-03-14T00:31:42;3.07;;;1.80;;
18893;SDS011;9579;49.488;8.226;2023-03-14T00:34:29;3.87;;;1.80;;
18893;SDS011;9579;49.488;8.226;2023-03-14T00:37:17;2.50;;;1.50;;
18893;SDS011;9579;49.488;8.226;2023-03-14T00:40:06;4.00;;;1.60;;
18893;SDS011;9579;49.488;8.226;2023-03-14T00:42:54;4.83;;;1.67;;
18893;SDS011;9579;49.488;8.226;2023-03-14T00:45:41;4.20;;;1.90;;
18893;SDS011;9579;49.488;8.226;2023-03-14T00:48:28;4.67;;;1.90;;
18893;SDS011;9579;49.488;8.226;2023-03-14T00:51:15;3.40;;;2.00;;
18893;SDS011;9579;49.488;8.226;2023-03-14T00:54:02;3.37;;;1.80;;
18893;SDS011;9579;49.488;8.226;2023-03-14T00:56:50;2.73;;;1.63;;
18893;SDS011;9579;49.488;8.226;2023-03-14T00:59:37;2.57;;;1.80;;
18893;SDS011;9579;49.488;8.226;2023-03-14T01:02:24;3.53;;;1.70;;
18893;SDS011;9579;49.488;8.226;2023-03-14T01:05:11;3.77;;;1.80;;
18893;SDS011;9579;49.488;8.226;2023-03-14T01:07:59;4.73;;;1.90;;
18893;SDS011;9579;49.488;8.226;2023-03-14T01:10:46;4.00;;;1.70;;
18893;SDS011;9579;49.488;8.226;2023-03-14T01:13:34;3.83;;;1.90;;
18893;SDS011;9579;49.488;8.226;2023-03-14T01:16:22;4.73;;;1.97;;
18893;SDS011;9579;49.488;8.226;2023-03-14T01:19:11;4.67;;;1.80;;
18893;SDS011;9579;49.488;8.226;2023-03-14T01:21:58;3.40;;;1.70;;
18893;SDS011;9579;49.488;8.226;2023-03-14T01:24:45;2.90;;;1.93;;
18893;SDS011;9579;49.488;8.226;2023-03-14T01:27:32;4.60;;;1.93;;
18893;SDS011;9579;49.488;8.226;2023-03-14T01:30:21;4.17;;;1.80;;
18893;SDS011;9579;49.488;8.226;2023-03-14T01:33:08;4.70;;;1.83;;
18893;SDS011;9579;49.488;8.226;2023-03-14T01:35:56;4.00;;;1.90;;
18893;SDS011;9579;49.488;8.226;2023-03-14T01:38:43;3.23;;;1.40;;
18893;SDS011;9579;49.488;8.226;2023-03-14T01:41:31;4.97;;;1.90;;
18893;SDS011;9579;49.488;8.226;2023-03-14T01:44:18;3.77;;;1.83;;
18893;SDS011;9579;49.488;8.226;2023-03-14T01:47:06;3.03;;;1.70;;
18893;SDS011;9579;49.488;8.226;2023-03-14T01:49:54;3.47;;;1.77;;
18893;SDS011;9579;49.488;8.226;2023-03-14T01:52:46;3.33;;;1.90;;
18893;SDS011;9579;49.488;8.226;2023-03-14T01:55:37;4.40;;;1.70;;
18893;SDS011;9579;49.488;8.226;2023-03-14T01:58:25;4.13;;;1.80;;
18893;SDS011;9579;49.488;8.226;2023-03-14T02:01:16;4.17;;;2.10;;
18893;SDS011;9579;49.488;8.226;2023-03-14T02:04:07;4.80;;;1.87;;
18893;SDS011;9579;49.488;8.226;2023-03-14T02:06:57;3.23;;;1.87;;
18893;SDS011;9579;49.488;8.226;2023-03-14T02:09:48;3.63;;;1.80;;
18893;SDS011;9579;49.488;8.226;2023-03-14T02:12:35;4.33;;;1.73;;
18893;SDS011;9579;49.488;8.226;2023-03-14T02:15:24;4.13;;;1.90;;
18893;SDS011;9579;49.488;8.226;2023-03-14T02:18:11;4.83;;;1.90;;
18893;SDS011;9579;49.488;8.226;2023-03-14T02:21:02;2.70;;;1.80;;
18893;SDS011;9579;49.488;8.226;2023-03-14T02:23:58;3.60;;;2.00;;
18893;SDS011;9579;49.488;8.226;2023-03-14T02:27:03;5.20;;;1.80;;
18893;SDS011;9579;49.488;8.226;2023-03-14T02:29:52;3.13;;;1.63;;
18893;SDS011;9579;49.488;8.226;2023-03-14T02:32:43;5.10;;;1.90;;
18893;SDS011;9579;49.488;8.226;2023-03-14T02:35:33;4.03;;;1.83;;
18893;SDS011;9579;49.488;8.226;2023-03-14T02:38:27;5.37;;;2.20;;
18893;SDS011;9579;49.488;8.226;2023-03-14T02:41:17;3.83;;;1.83;;
18893;SDS011;9579;49.488;8.226;2023-03-14T02:44:06;3.90;;;1.87;;
18893;SDS011;9579;49.488;8.226;2023-03-14T02:46:53;4.80;;;2.10;;
18893;SDS011;9579;49.488;8.226;2023-03-14T02:49:40;4.40;;;1.57;;
18893;SDS011;9579;49.488;8.226;2023-03-14T02:52:27;2.83;;;1.60;;
18893;SDS011;9579;49.488;8.226;2023-03-14T02:55:14;5.37;;;2.00;;
18893;SDS011;9579;49.488;8.226;2023-03-14T02:58:06;5.17;;;1.97;;
18893;SDS011;9579;49.488;8.226;2023-03-14T03:00:54;3.43;;;1.70;;
18893;SDS011;9579;49.488;8.226;2023-03-14T03:03:41;5.67;;;2.10;;
18893;SDS011;9579;49.488;8.226;2023-03-14T03:06:29;5.23;;;1.97;;
18893;SDS011;9579;49.488;8.226;2023-03-14T03:09:16;3.83;;;1.80;;
18893;SDS011;9579;49.488;8.226;2023-03-14T03:12:03;4.53;;;1.73;;
18893;SDS011;9579;49.488;8.226;2023-03-14T03:14:50;5.83;;;1.90;;
18893;SDS011;9579;49.488;8.226;2023-03-14T03:17:38;4.43;;;1.87;;
18893;SDS011;9579;49.488;8.226;2023-03-14T03:20:25;4.57;;;1.80;;
18893;SDS011;9579;49.488;8.226;2023-03-14T03:23:12;4.17;;;1.90;;
18893;SDS011;9579;49.488;8.226;2023-03-14T03:25:59;3.67;;;1.60;;
18893;SDS011;9579;49.488;8.226;2023-03-14T03:28:49;4.93;;;1.93;;
18893;SDS011;9579;49.488;8.226;2023-03-14T03:31:37;3.70;;;1.70;;
18893;SDS011;9579;49.488;8.226;2023-03-14T03:34:26;3.60;;;1.80;;
18893;SDS011;9579;49.488;8.226;2023-03-14T03:37:14;3.93;;;1.80;;
18893;SDS011;9579;49.488;8.226;2023-03-14T03:40:01;5.47;;;1.70;;
18893;SDS011;9579;49.488;8.226;2023-03-14T03:42:51;3.40;;;1.80;;
18893;SDS011;9579;49.488;8.226;2023-03-14T03:45:38;3.33;;;1.80;;
18893;SDS011;9579;49.488;8.226;2023-03-14T03:48:25;3.90;;;1.60;;
18893;SDS011;9579;49.488;8.226;2023-03-14T03:51:14;3.07;;;1.70;;
18893;SDS011;9579;49.488;8.226;2023-03-14T03:54:01;3.03;;;1.60;;
18893;SDS011;9579;49.488;8.226;2023-03-14T03:56:48;3.70;;;1.50;;
18893;SDS011;9579;49.488;8.226;2023-03-14T03:59:35;4.67;;;1.63;;
18893;SDS011;9579;49.488;8.226;2023-03-14T04:02:25;4.90;;;2.00;;
18893;SDS011;9579;49.488;8.226;2023-03-14T04:05:12;3.97;;;1.97;;
18893;SDS011;9579;49.488;8.226;2023-03-14T04:08:01;3.50;;;1.70;;
18893;SDS011;9579;49.488;8.226;2023-03-14T04:10:48;3.60;;;1.53;;
18893;SDS011;9579;49.488;8.226;2023-03-14T04:13:35;5.03;;;1.70;;
18893;SDS011;9579;49.488;8.226;2023-03-14T04:16:23;4.00;;;1.67;;
18893;SDS011;9579;49.488;8.226;2023-03-14T04:19:11;2.70;;;1.37;;
18893;SDS011;9579;49.488;8.226;2023-03-14T04:21:58;5.37;;;1.70;;
18893;SDS011;9579;49.488;8.226;2023-03-14T04:24:46;4.27;;;1.63;;
18893;SDS011;9579;49.488;8.226;2023-03-14T04:27:33;4.10;;;1.83;;
18893;SDS011;9579;49.488;8.226;2023-03-14T04:30:20;4.07;;;1.50;;
18893;SDS011;9579;49.488;8.226;2023-03-14T04:33:07;2.90;;;1.60;;
18893;SDS011;9579;49.488;8.226;2023-03-14T04:35:55;3.87;;;1.60;;
18893;SDS011;9579;49.488;8.226;2023-03-14T04:38:42;4.17;;;1.80;;
18893;SDS011;9579;49.488;8.226;2023-03-14T04:41:30;3.83;;;1.57;;
18893;SDS011;9579;49.488;8.226;2023-03-14T04:44:17;4.37;;;1.53;;
18893;SDS011;9579;49.488;8.226;2023-03-14T04:47:04;3.80;;;1.37;;
18893;SDS011;9579;49.488;8.226;2023-03-14T04:49:51;2.40;;;1.33;;
18893;SDS011;9579;49.488;8.226;2023-03-14T04:52:38;4.50;;;1.67;;
18893;SDS011;9579;49.488;8.226;2023-03-14T04:55:25;3.40;;;1.70;;
18893;SDS011;9579;49.488;8.226;2023-03-14T04:58:13;3.47;;;1.70;;
18893;SDS011;9579;49.488;8.226;2023-03-14T05:01:01;3.07;;;1.43;;
18893;SDS011;9579;49.488;8.226;2023-03-14T05:03:49;2.43;;;1.50;;
18893;SDS011;9579;49.488;8.226;2023-03-14T05:06:36;2.10;;;1.30;;
18893;SDS011;9579;49.488;8.226;2023-03-14T05:09:25;2.43;;;1.50;;
18893;SDS011;9579;49.488;8.226;2023-03-14T05:12:12;3.00;;;1.30;;
18893;SDS011;9579;49.488;8.226;2023-03-14T05:15:00;2.17;;;1.30;;
18893;SDS011;9579;49.488;8.226;2023-03-14T05:17:54;3.00;;;1.37;;
18893;SDS011;9579;49.488;8.226;2023-03-14T05:23:28;3.10;;;1.30;;
18893;SDS011;9579;49.488;8.226;2023-03-14T05:26:38;2.67;;;1.30;;
18893;SDS011;9579;49.488;8.226;2023-03-14T05:29:39;2.63;;;1.27;;
18893;SDS011;9579;49.488;8.226;2023-03-14T05:35:06;2.03;;;1.10;;
18893;SDS011;9579;49.488;8.226;2023-03-14T05:37:53;1.93;;;1.27;;
18893;SDS011;9579;49.488;8.226;2023-03-14T05:40:41;2.30;;;1.30;;
18893;SDS011;9579;49.488;8.226;2023-03-14T05:43:29;3.40;;;1.50;;
18893;SDS011;9579;49.488;8.226;2023-03-14T05:46:16;1.93;;;1.10;;
18893;SDS011;9579;49.488;8.226;2023-03-14T05:48:54;4.43;;;1.50;;
18893;SDS011;9579;49.488;8.226;2023-03-14T05:51:44;2.40;;;1.33;;
18893;SDS011;9579;49.488;8.226;2023-03-14T05:57:06;2.77;;;1.23;;
18893;SDS011;9579;49.488;8.226;2023-03-14T05:59:53;2.77;;;1.40;;
18893;SDS011;9579;49.488;8.226;2023-03-14T06:02:41;1.60;;;1.30;;
18893;SDS011;9579;49.488;8.226;2023-03-14T06:05:29;2.80;;;1.20;;
18893;SDS011;9579;49.488;8.226;2023-03-14T06:08:18;3.70;;;1.40;;
18893;SDS011;9579;49.488;8.226;2023-03-14T06:11:06;2.00;;;1.30;;
18893;SDS011;9579;49.488;8.226;2023-03-14T06:13:53;2.83;;;1.30;;
18893;SDS011;9579;49.488;8.226;2023-03-14T06:16:40;2.73;;;1.40;;
18893;SDS011;9579;49.488;8.226;2023-03-14T06:19:27;3.57;;;1.40;;
18893;SDS011;9579;49.488;8.226;2023-03-14T06:22:15;4.13;;;1.43;;
18893;SDS011;9579;49.488;8.226;2023-03-14T06:25:04;3.00;;;1.50;;
18893;SDS011;9579;49.488;8.226;2023-03-14T06:27:52;3.17;;;1.50;;
18893;SDS011;9579;49.488;8.226;2023-03-14T06:30:39;2.30;;;1.40;;
18893;SDS011;9579;49.488;8.226;2023-03-14T06:33:26;3.30;;;1.57;;
18893;SDS011;9579;49.488;8.226;2023-03-14T06:36:13;2.53;;;1.40;;
18893;SDS011;9579;49.488;8.226;2023-03-14T06:39:00;3.07;;;1.30;;
18893;SDS011;9579;49.488;8.226;2023-03-14T06:41:49;3.43;;;1.50;;
18893;SDS011;9579;49.488;8.226;2023-03-14T06:44:36;4.20;;;1.60;;
18893;SDS011;9579;49.488;8.226;2023-03-14T06:47:23;4.03;;;1.50;;
18893;SDS011;9579;49.488;8.226;2023-03-14T06:50:10;3.70;;;1.63;;
18893;SDS011;9579;49.488;8.226;2023-03-14T06:52:57;3.17;;;1.60;;
18893;SDS011;9579;49.488;8.226;2023-03-14T06:55:44;3.17;;;1.40;;
18893;SDS011;9579;49.488;8.226;2023-03-14T06:58:33;2.30;;;1.30;;
18893;SDS011;9579;49.488;8.226;2023-03-14T07:01:21;2.63;;;1.27;;
18893;SDS011;9579;49.488;8.226;2023-03-14T07:04:10;2.90;;;1.27;;
18893;SDS011;9579;49.488;8.226;2023-03-14T07:06:57;3.20;;;1.30;;
18893;SDS011;9579;49.488;8.226;2023-03-14T07:09:44;3.43;;;1.40;;
18893;SDS011;9579;49.488;8.226;2023-03-14T07:12:31;2.23;;;1.33;;
18893;SDS011;9579;49.488;8.226;2023-03-14T07:15:19;3.27;;;1.20;;
18893;SDS011;9579;49.488;8.226;2023-03-14T07:18:07;2.07;;;1.10;;
18893;SDS011;9579;49.488;8.226;2023-03-14T07:20:56;3.20;;;1.40;;
18893;SDS011;9579;49.488;8.226;2023-03-14T07:23:57;1.33;;;1.00;;
18893;SDS011;9579;49.488;8.226;2023-03-14T07:26:46;2.00;;;1.17;;
18893;SDS011;9579;49.488;8.226;2023-03-14T07:29:33;1.80;;;1.20;;
18893;SDS011;9579;49.488;8.226;2023-03-14T07:32:23;2.13;;;1.10;;
18893;SDS011;9579;49.488;8.226;2023-03-14T07:35:14;2.03;;;1.20;;
18893;SDS011;9579;49.488;8.226;2023-03-14T07:38:04;1.47;;;0.97;;
18893;SDS011;9579;49.488;8.226;2023-03-14T07:43:29;1.57;;;0.90;;
18893;SDS011;9579;49.488;8.226;2023-03-14T07:49:04;1.80;;;1.10;;
18893;SDS011;9579;49.488;8.226;2023-03-14T07:51:51;1.50;;;0.90;;
18893;SDS011;9579;49.488;8.226;2023-03-14T07:57:14;2.27;;;1.00;;
18893;SDS011;9579;49.488;8.226;2023-03-14T08:00:15;2.50;;;1.10;;
18893;SDS011;9579;49.488;8.226;2023-03-14T08:03:03;1.17;;;1.00;;
18893;SDS011;9579;49.488;8.226;2023-03-14T08:05:51;1.33;;;0.93;;
18893;SDS011;9579;49.488;8.226;2023-03-14T08:08:38;1.27;;;0.90;;
18893;SDS011;9579;49.488;8.226;2023-03-14T08:11:26;1.30;;;1.00;;
18893;SDS011;9579;49.488;8.226;2023-03-14T08:14:13;1.70;;;1.00;;
18893;SDS011;9579;49.488;8.226;2023-03-14T08:17:00;2.60;;;1.10;;
18893;SDS011;9579;49.488;8.226;2023-03-14T08:19:47;2.17;;;1.17;;
18893;SDS011;9579;49.488;8.226;2023-03-14T08:22:36;1.50;;;1.00;;
18893;SDS011;9579;49.488;8.226;2023-03-14T08:25:24;0.80;;;0.80;;
18893;SDS011;9579;49.488;8.226;2023-03-14T08:28:11;1.33;;;0.90;;
18893;SDS011;9579;49.488;8.226;2023-03-14T08:30:58;1.67;;;0.93;;
18893;SDS011;9579;49.488;8.226;2023-03-14T08:33:46;0.80;;;0.70;;
18893;SDS011;9579;49.488;8.226;2023-03-14T08:36:33;0.77;;;0.70;;
18893;SDS011;9579;49.488;8.226;2023-03-14T08:39:22;1.27;;;0.80;;
18893;SDS011;9579;49.488;8.226;2023-03-14T08:42:10;1.17;;;0.83;;
18893;SDS011;9579;49.488;8.226;2023-03-14T08:45:00;1.73;;;0.87;;
18893;SDS011;9579;49.488;8.226;2023-03-14T08:47:47;1.07;;;0.80;;
18893;SDS011;9579;49.488;8.226;2023-03-14T08:50:36;1.57;;;0.90;;
18893;SDS011;9579;49.488;8.226;2023-03-14T08:53:26;1.30;;;0.73;;
18893;SDS011;9579;49.488;8.226;2023-03-14T08:56:23;0.60;;;0.60;;
18893;SDS011;9579;49.488;8.226;2023-03-14T08:59:15;0.73;;;0.73;;
18893;SDS011;9579;49.488;8.226;2023-03-14T09:02:05;0.70;;;0.70;;
18893;SDS011;9579;49.488;8.226;2023-03-14T09:04:57;0.70;;;0.70;;
18893;SDS011;9579;49.488;8.226;2023-03-14T09:07:49;0.87;;;0.80;;
18893;SDS011;9579;49.488;8.226;2023-03-14T09:10:36;1.00;;;0.80;;
18893;SDS011;9579;49.488;8.226;2023-03-14T09:13:23;0.70;;;0.70;;
18893;SDS011;9579;49.488;8.226;2023-03-14T09:16:19;1.10;;;0.83;;
18893;SDS011;9579;49.488;8.226;2023-03-14T09:24:18;0.67;;;0.67;;
18893;SDS011;9579;49.488;8.226;2023-03-14T09:27:07;1.00;;;0.60;;
18893;SDS011;9579;49.488;8.226;2023-03-14T09:32:34;0.63;;;0.63;;
18893;SDS011;9579;49.488;8.226;2023-03-14T09:35:21;1.33;;;0.70;;
18893;SDS011;9579;49.488;8.226;2023-03-14T09:38:09;0.73;;;0.73;;
18893;SDS011;9579;49.488;8.226;2023-03-14T09:40:57;0.63;;;0.60;;
18893;SDS011;9579;49.488;8.226;2023-03-14T09:43:46;1.07;;;0.70;;
18893;SDS011;9579;49.488;8.226;2023-03-14T09:46:36;0.60;;;0.60;;
18893;SDS011;9579;49.488;8.226;2023-03-14T09:52:06;0.93;;;0.60;;
18893;SDS011;9579;49.488;8.226;2023-03-14T09:55:01;0.40;;;0.40;;
18893;SDS011;9579;49.488;8.226;2023-03-14T09:57:51;0.60;;;0.60;;
18893;SDS011;9579;49.488;8.226;2023-03-14T10:00:46;0.50;;;0.50;;
18893;SDS011;9579;49.488;8.226;2023-03-14T10:03:35;1.00;;;0.67;;
18893;SDS011;9579;49.488;8.226;2023-03-14T10:06:31;0.60;;;0.50;;
18893;SDS011;9579;49.488;8.226;2023-03-14T10:09:22;0.70;;;0.57;;
18893;SDS011;9579;49.488;8.226;2023-03-14T10:12:10;0.63;;;0.47;;
18893;SDS011;9579;49.488;8.226;2023-03-14T10:20:14;0.50;;;0.50;;
18893;SDS011;9579;49.488;8.226;2023-03-14T10:50:26;0.80;;;0.80;;
18893;SDS011;9579;49.488;8.226;2023-03-14T11:04:25;0.70;;;0.70;;
18893;SDS011;9579;49.488;8.226;2023-03-14T11:10:26;0.60;;;0.50;;
18893;SDS011;9579;49.488;8.226;2023-03-14T11:15:58;0.77;;;0.77;;
18893;SDS011;9579;49.488;8.226;2023-03-14T11:18:57;0.60;;;0.60;;
18893;SDS011;9579;49.488;8.226;2023-03-14T11:21:51;0.80;;;0.80;;
18893;SDS011;9579;49.488;8.226;2023-03-14T11:24:49;0.73;;;0.73;;
18893;SDS011;9579;49.488;8.226;2023-03-14T11:27:48;0.97;;;0.97;;
18893;SDS011;9579;49.488;8.226;2023-03-14T11:30:42;0.90;;;0.90;;
18893;SDS011;9579;49.488;8.226;2023-03-14T11:33:37;1.00;;;1.00;;
18893;SDS011;9579;49.488;8.226;2023-03-14T11:36:29;0.83;;;0.83;;
18893;SDS011;9579;49.488;8.226;2023-03-14T11:39:21;0.90;;;0.90;;
18893;SDS011;9579;49.488;8.226;2023-03-14T11:42:12;1.10;;;1.00;;
18893;SDS011;9579;49.488;8.226;2023-03-14T11:45:01;1.70;;;1.00;;
18893;SDS011;9579;49.488;8.226;2023-03-14T11:47:50;1.13;;;1.03;;
18893;SDS011;9579;49.488;8.226;2023-03-14T11:50:44;1.10;;;1.00;;
18893;SDS011;9579;49.488;8.226;2023-03-14T11:53:40;0.97;;;0.97;;
18893;SDS011;9579;49.488;8.226;2023-03-14T11:56:35;1.13;;;1.00;;
18893;SDS011;9579;49.488;8.226;2023-03-14T11:59:28;1.00;;;1.00;;
18893;SDS011;9579;49.488;8.226;2023-03-14T12:02:21;0.80;;;0.80;;
18893;SDS011;9579;49.488;8.226;2023-03-14T12:08:22;0.70;;;0.70;;
18893;SDS011;9579;49.488;8.226;2023-03-14T12:11:38;3.40;;;0.80;;
18893;SDS011;9579;49.488;8.226;2023-03-14T12:14:30;0.60;;;0.60;;
18893;SDS011;9579;49.488;8.226;2023-03-14T12:17:20;1.00;;;0.80;;
18893;SDS011;9579;49.488;8.226;2023-03-14T12:20:15;0.90;;;0.90;;
18893;SDS011;9579;49.488;8.226;2023-03-14T12:23:04;0.60;;;0.60;;
18893;SDS011;9579;49.488;8.226;2023-03-14T12:26:13;0.57;;;0.57;;
18893;SDS011;9579;49.488;8.226;2023-03-14T12:29:10;0.73;;;0.70;;
18893;SDS011;9579;49.488;8.226;2023-03-14T12:32:12;0.80;;;0.80;;
18893;SDS011;9579;49.488;8.226;2023-03-14T12:38:23;0.93;;;0.90;;
18893;SDS011;9579;49.488;8.226;2023-03-14T12:41:17;0.73;;;0.73;;
18893;SDS011;9579;49.488;8.226;2023-03-14T12:50:36;1.67;;;1.17;;
18893;SDS011;9579;49.488;8.226;2023-03-14T12:53:39;1.23;;;1.20;;
18893;SDS011;9579;49.488;8.226;2023-03-14T12:57:04;2.00;;;1.30;;
18893;SDS011;9579;49.488;8.226;2023-03-14T12:59:57;1.60;;;1.50;;
18893;SDS011;9579;49.488;8.226;2023-03-14T13:02:47;2.60;;;1.30;;
18893;SDS011;9579;49.488;8.226;2023-03-14T13:05:36;1.20;;;1.10;;
18893;SDS011;9579;49.488;8.226;2023-03-14T13:08:38;1.50;;;1.40;;
18893;SDS011;9579;49.488;8.226;2023-03-14T13:11:26;1.60;;;1.50;;
18893;SDS011;9579;49.488;8.226;2023-03-14T13:14:13;3.17;;;1.47;;
18893;SDS011;9579;49.488;8.226;2023-03-14T13:17:01;1.40;;;1.30;;
18893;SDS011;9579;49.488;8.226;2023-03-14T13:19:51;1.70;;;1.60;;
18893;SDS011;9579;49.488;8.226;2023-03-14T13:22:45;2.50;;;1.30;;
18893;SDS011;9579;49.488;8.226;2023-03-14T13:25:34;1.37;;;1.27;;
18893;SDS011;9579;49.488;8.226;2023-03-14T13:28:22;2.13;;;1.50;;
18893;SDS011;9579;49.488;8.226;2023-03-14T13:31:22;2.27;;;1.33;;
18893;SDS011;9579;49.488;8.226;2023-03-14T13:34:10;2.77;;;1.33;;
18893;SDS011;9579;49.488;8.226;2023-03-14T13:36:58;1.63;;;1.40;;
18893;SDS011;9579;49.488;8.226;2023-03-14T13:39:49;1.43;;;1.33;;
18893;SDS011;9579;49.488;8.226;2023-03-14T13:42:36;2.33;;;1.50;;
18893;SDS011;9579;49.488;8.226;2023-03-14T13:45:23;2.40;;;1.47;;
18893;SDS011;9579;49.488;8.226;2023-03-14T13:48:10;2.47;;;1.40;;
18893;SDS011;9579;49.488;8.226;2023-03-14T13:51:01;4.20;;;1.30;;
18893;SDS011;9579;49.488;8.226;2023-03-14T13:53:53;1.40;;;1.23;;
18893;SDS011;9579;49.488;8.226;2023-03-14T13:56:41;1.90;;;1.30;;
18893;SDS011;9579;49.488;8.226;2023-03-14T13:59:29;2.30;;;1.20;;
18893;SDS011;9579;49.488;8.226;2023-03-14T14:02:17;1.30;;;1.20;;
18893;SDS011;9579;49.488;8.226;2023-03-14T14:05:05;1.17;;;1.00;;
18893;SDS011;9579;49.488;8.226;2023-03-14T14:07:53;1.77;;;1.30;;
18893;SDS011;9579;49.488;8.226;2023-03-14T14:10:41;1.90;;;1.30;;
18893;SDS011;9579;49.488;8.226;2023-03-14T14:13:29;1.13;;;0.93;;
18893;SDS011;9579;49.488;8.226;2023-03-14T14:16:19;1.93;;;1.13;;
18893;SDS011;9579;49.488;8.226;2023-03-14T14:19:10;1.20;;;1.10;;
18893;SDS011;9579;49.488;8.226;2023-03-14T14:21:58;1.30;;;1.10;;
18893;SDS011;9579;49.488;8.226;2023-03-14T14:24:46;1.60;;;1.20;;
18893;SDS011;9579;49.488;8.226;2023-03-14T14:27:36;1.93;;;1.37;;
18893;SDS011;9579;49.488;8.226;2023-03-14T14:30:25;2.23;;;1.50;;
18893;SDS011;9579;49.488;8.226;2023-03-14T14:33:18;1.40;;;1.20;;
18893;SDS011;9579;49.488;8.226;2023-03-14T14:36:13;2.00;;;1.20;;
18893;SDS011;9579;49.488;8.226;2023-03-14T14:39:05;1.90;;;1.20;;
18893;SDS011;9579;49.488;8.226;2023-03-14T14:41:58;2.87;;;1.40;;
18893;SDS011;9579;49.488;8.226;2023-03-14T14:44:51;1.57;;;1.10;;
18893;SDS011;9579;49.488;8.226;2023-03-14T14:47:47;1.27;;;1.13;;
18893;SDS011;9579;49.488;8.226;2023-03-14T14:50:38;1.40;;;1.10;;
18893;SDS011;9579;49.488;8.226;2023-03-14T14:53:27;1.20;;;1.10;;
18893;SDS011;9579;49.488;8.226;2023-03-14T14:56:17;3.67;;;1.30;;
18893;SDS011;9579;49.488;8.226;2023-03-14T14:59:17;1.37;;;1.10;;
18893;SDS011;9579;49.488;8.226;2023-03-14T15:02:27;1.37;;;0.90;;
18893;SDS011;9579;49.488;8.226;2023-03-14T15:05:19;2.27;;;1.50;;
18893;SDS011;9579;49.488;8.226;2023-03-14T15:08:08;1.80;;;1.00;;
18893;SDS011;9579;49.488;8.226;2023-03-14T15:10:56;1.57;;;1.20;;
18893;SDS011;9579;49.488;8.226;2023-03-14T15:13:45;2.73;;;1.37;;
18893;SDS011;9579;49.488;8.226;2023-03-14T15:16:32;1.43;;;1.10;;
18893;SDS011;9579;49.488;8.226;2023-03-14T15:19:24;1.90;;;1.40;;
18893;SDS011;9579;49.488;8.226;2023-03-14T15:22:14;1.83;;;1.40;;
18893;SDS011;9579;49.488;8.226;2023-03-14T15:25:02;1.67;;;1.20;;
18893;SDS011;9579;49.488;8.226;2023-03-14T15:27:50;2.37;;;1.30;;
18893;SDS011;9579;49.488;8.226;2023-03-14T15:30:42;3.10;;;1.27;;
18893;SDS011;9579;49.488;8.226;2023-03-14T15:33:30;2.23;;;1.40;;
18893;SDS011;9579;49.488;8.226;2023-03-14T15:36:28;2.30;;;1.30;;
18893;SDS011;9579;49.488;8.226;2023-03-14T15:39:18;2.67;;;1.20;;
18893;SDS011;9579;49.488;8.226;2023-03-14T15:42:05;2.30;;;1.33;;
18893;SDS011;9579;49.488;8.226;2023-03-14T15:44:52;2.43;;;1.30;;
18893;SDS011;9579;49.488;8.226;2023-03-14T15:47:40;2.07;;;1.60;;
18893;SDS011;9579;49.488;8.226;2023-03-14T15:50:27;2.03;;;1.50;;
18893;SDS011;9579;49.488;8.226;2023-03-14T15:53:15;1.83;;;1.30;;
18893;SDS011;9579;49.488;8.226;2023-03-14T15:56:02;2.20;;;1.60;;
18893;SDS011;9579;49.488;8.226;2023-03-14T15:58:50;5.87;;;1.33;;
18893;SDS011;9579;49.488;8.226;2023-03-14T16:01:37;2.10;;;1.40;;
18893;SDS011;9579;49.488;8.226;2023-03-14T16:04:24;2.40;;;1.47;;
18893;SDS011;9579;49.488;8.226;2023-03-14T16:07:11;3.60;;;1.60;;
18893;SDS011;9579;49.488;8.226;2023-03-14T16:09:59;2.43;;;1.37;;
18893;SDS011;9579;49.488;8.226;2023-03-14T16:12:47;2.03;;;1.60;;
18893;SDS011;9579;49.488;8.226;2023-03-14T16:15:36;3.20;;;1.60;;
18893;SDS011;9579;49.488;8.226;2023-03-14T16:18:23;3.63;;;3.20;;
18893;SDS011;9579;49.488;8.226;2023-03-14T16:21:14;19.10;;;15.73;;
18893;SDS011;9579;49.488;8.226;2023-03-14T16:24:02;25.53;;;21.03;;
18893;SDS011;9579;49.488;8.226;2023-03-14T16:26:52;15.87;;;13.77;;
18893;SDS011;9579;49.488;8.226;2023-03-14T16:29:40;6.90;;;6.20;;
18893;SDS011;9579;49.488;8.226;2023-03-14T16:32:27;4.60;;;2.50;;
18893;SDS011;9579;49.488;8.226;2023-03-14T16:35:14;5.10;;;2.03;;
18893;SDS011;9579;49.488;8.226;2023-03-14T16:38:01;3.57;;;2.40;;
18893;SDS011;9579;49.488;8.226;2023-03-14T16:40:56;4.43;;;2.53;;
18893;SDS011;9579;49.488;8.226;2023-03-14T16:43:45;2.63;;;1.57;;
18893;SDS011;9579;49.488;8.226;2023-03-14T16:46:36;3.03;;;2.17;;
18893;SDS011;9579;49.488;8.226;2023-03-14T16:53:01;2.57;;;1.60;;
18893;SDS011;9579;49.488;8.226;2023-03-14T16:56:05;2.70;;;1.50;;
18893;SDS011;9579;49.488;8.226;2023-03-14T16:59:05;1.67;;;1.20;;
18893;SDS011;9579;49.488;8.226;2023-03-14T17:02:18;3.20;;;1.50;;
18893;SDS011;9579;49.488;8.226;2023-03-14T17:08:32;3.57;;;1.43;;
18893;SDS011;9579;49.488;8.226;2023-03-14T17:11:20;2.80;;;1.50;;
18893;SDS011;9579;49.488;8.226;2023-03-14T17:14:08;3.73;;;1.60;;
18893;SDS011;9579;49.488;8.226;2023-03-14T17:16:55;3.00;;;1.53;;
18893;SDS011;9579;49.488;8.226;2023-03-14T17:22:18;3.13;;;1.40;;
18893;SDS011;9579;49.488;8.226;2023-03-14T17:25:06;4.07;;;1.70;;
18893;SDS011;9579;49.488;8.226;2023-03-14T17:27:53;4.70;;;1.90;;
18893;SDS011;9579;49.488;8.226;2023-03-14T17:30:41;12.37;;;10.03;;
18893;SDS011;9579;49.488;8.226;2023-03-14T17:33:29;4.63;;;3.13;;
18893;SDS011;9579;49.488;8.226;2023-03-14T17:36:16;17.97;;;14.60;;
18893;SDS011;9579;49.488;8.226;2023-03-14T17:39:04;17.07;;;13.10;;
18893;SDS011;9579;49.488;8.226;2023-03-14T17:41:53;19.17;;;15.00;;
18893;SDS011;9579;49.488;8.226;2023-03-14T17:44:41;6.27;;;4.83;;
18893;SDS011;9579;49.488;8.226;2023-03-14T17:47:30;8.27;;;6.20;;
18893;SDS011;9579;49.488;8.226;2023-03-14T17:50:17;5.50;;;3.70;;
18893;SDS011;9579;49.488;8.226;2023-03-14T17:53:14;11.23;;;9.40;;
18893;SDS011;9579;49.488;8.226;2023-03-14T17:56:17;13.63;;;11.77;;
18893;SDS011;9579;49.488;8.226;2023-03-14T17:59:08;6.97;;;4.63;;
18893;SDS011;9579;49.488;8.226;2023-03-14T18:01:56;6.77;;;4.43;;
18893;SDS011;9579;49.488;8.226;2023-03-14T18:04:49;15.43;;;13.53;;
18893;SDS011;9579;49.488;8.226;2023-03-14T18:07:38;9.10;;;5.80;;
18893;SDS011;9579;49.488;8.226;2023-03-14T18:10:27;10.17;;;7.20;;
18893;SDS011;9579;49.488;8.226;2023-03-14T18:13:18;7.40;;;4.50;;
18893;SDS011;9579;49.488;8.226;2023-03-14T18:16:06;4.80;;;3.63;;
18893;SDS011;9579;49.488;8.226;2023-03-14T18:18:54;6.03;;;3.47;;
18893;SDS011;9579;49.488;8.226;2023-03-14T18:21:46;4.40;;;2.90;;
18893;SDS011;9579;49.488;8.226;2023-03-14T18:24:36;5.23;;;2.20;;
18893;SDS011;9579;49.488;8.226;2023-03-14T18:27:23;4.27;;;2.00;;
18893;SDS011;9579;49.488;8.226;2023-03-14T18:30:12;3.97;;;1.87;;
18893;SDS011;9579;49.488;8.226;2023-03-14T18:35:35;4.07;;;2.30;;
18893;SDS011;9579;49.488;8.226;2023-03-14T18:38:24;4.40;;;2.17;;
18893;SDS011;9579;49.488;8.226;2023-03-14T18:41:13;3.87;;;1.87;;
18893;SDS011;9579;49.488;8.226;2023-03-14T18:44:03;2.83;;;1.60;;
18893;SDS011;9579;49.488;8.226;2023-03-14T18:46:53;2.63;;;1.70;;
18893;SDS011;9579;49.488;8.226;2023-03-14T18:49:41;2.33;;;1.70;;
18893;SDS011;9579;49.488;8.226;2023-03-14T18:52:39;2.57;;;1.90;;
18893;SDS011;9579;49.488;8.226;2023-03-14T18:55:28;2.43;;;1.90;;
18893;SDS011;9579;49.488;8.226;2023-03-14T18:58:17;2.40;;;1.60;;